createdAt,value
2023-04-22T00:02:14.502Z,9.60
2023-04-22T00:04:42.540Z,9.13
2023-04-22T00:07:10.574Z,10.13
2023-04-22T00:09:38.721Z,9.83
2023-04-22T00:12:08.333Z,10.03
2023-04-22T00:14:36.104Z,9.50
2023-04-22T00:17:03.972Z,9.20
2023-04-22T00:19:31.967Z,8.80
2023-04-22T00:21:59.686Z,9.27
2023-04-22T00:24:27.432Z,9.13
2023-04-22T00:26:55.225Z,9.93
2023-04-22T00:29:24.287Z,9.00
2023-04-22T00:31:52.084Z,9.67
2023-04-22T00:34:19.829Z,9.20
2023-04-22T00:36:47.562Z,8.50
2023-04-22T00:39:15.815Z,9.70
2023-04-22T00:41:44.159Z,10.07
2023-04-22T00:44:12.818Z,8.93
2023-04-22T00:46:42.339Z,9.23
2023-04-22T00:49:10.222Z,9.30
2023-04-22T00:51:38.036Z,8.77
2023-04-22T00:54:06.543Z,9.27
2023-04-22T00:56:36.015Z,9.10
2023-04-22T00:59:03.994Z,9.07
2023-04-22T01:01:32.181Z,9.13
2023-04-22T01:04:01.985Z,7.83
2023-04-22T01:06:32.301Z,7.97
2023-04-22T01:09:00.156Z,9.47
2023-04-22T01:11:27.951Z,8.60
2023-04-22T01:13:56.438Z,7.90
2023-04-22T01:16:25.043Z,8.47
2023-04-22T01:18:52.954Z,7.43
2023-04-22T01:21:22.763Z,8.07
2023-04-22T01:23:52.044Z,8.50
2023-04-22T01:26:19.924Z,8.03
2023-04-22T01:28:47.824Z,8.07
2023-04-22T01:31:16.472Z,8.27
2023-04-22T01:33:45.322Z,7.60
2023-04-22T01:36:13.390Z,8.23
2023-04-22T01:38:41.316Z,7.73
2023-04-22T01:41:10.526Z,8.03
2023-04-22T01:43:39.743Z,8.17
2023-04-22T01:46:09.477Z,8.40
2023-04-22T01:48:37.701Z,8.23
2023-04-22T01:51:05.523Z,7.83
2023-04-22T01:53:33.268Z,8.07
2023-04-22T01:56:01.262Z,7.87
2023-04-22T01:58:31.474Z,9.13
2023-04-22T02:00:59.254Z,8.57
2023-04-22T02:03:27.064Z,8.20
2023-04-22T02:05:54.870Z,8.30
2023-04-22T02:08:23.192Z,8.10
2023-04-22T02:10:50.933Z,8.30
2023-04-22T02:13:18.699Z,8.67
2023-04-22T02:15:47.815Z,7.83
2023-04-22T02:18:17.936Z,8.17
2023-04-22T02:20:46.139Z,8.37
2023-04-22T02:23:14.061Z,8.47
2023-04-22T02:25:42.041Z,7.63
2023-04-22T02:28:09.885Z,8.73
2023-04-22T02:30:37.794Z,8.43
2023-04-22T02:33:06.869Z,7.67
2023-04-22T02:35:34.793Z,7.57
2023-04-22T02:38:02.592Z,8.53
2023-04-22T02:40:30.429Z,7.90
2023-04-22T02:42:58.169Z,8.27
2023-04-22T02:45:25.945Z,7.23
2023-04-22T02:47:53.736Z,7.70
2023-04-22T02:50:23.003Z,7.80
2023-04-22T02:52:51.333Z,8.07
2023-04-22T02:55:19.176Z,8.20
2023-04-22T02:57:46.949Z,8.53
2023-04-22T03:00:15.068Z,8.00
2023-04-22T03:02:42.933Z,8.23
2023-04-22T03:05:11.546Z,8.73
2023-04-22T03:07:40.620Z,8.23
2023-04-22T03:10:09.975Z,8.37
2023-04-22T03:12:37.752Z,8.43
2023-04-22T03:15:06.447Z,9.07
2023-04-22T03:17:34.743Z,7.83
2023-04-22T03:20:02.635Z,9.23
2023-04-22T03:22:30.391Z,8.90
2023-04-22T03:24:59.445Z,8.63
2023-04-22T03:27:27.270Z,8.60
2023-04-22T03:29:56.433Z,8.80
2023-04-22T03:32:24.282Z,8.60
2023-04-22T03:34:52.073Z,8.90
2023-04-22T03:37:19.800Z,8.60
2023-04-22T03:39:47.530Z,9.10
2023-04-22T03:42:16.721Z,8.70
2023-04-22T03:44:44.504Z,8.87
2023-04-22T03:47:12.275Z,8.90
2023-04-22T03:49:40.751Z,9.50
2023-04-22T03:52:08.777Z,8.87
2023-04-22T03:54:37.817Z,8.57
2023-04-22T03:57:05.642Z,9.57
2023-04-22T03:59:34.757Z,9.30
2023-04-22T04:02:02.644Z,9.40
2023-04-22T04:04:30.701Z,9.23
2023-04-22T04:06:59.513Z,9.37
2023-04-22T04:09:27.353Z,8.83
2023-04-22T04:11:55.110Z,8.37
2023-04-22T04:14:22.991Z,9.17
2023-04-22T04:16:52.381Z,9.63
2023-04-22T04:19:20.112Z,9.87
2023-04-22T04:21:47.790Z,9.13
2023-04-22T04:24:15.645Z,8.93
2023-04-22T04:26:43.388Z,9.63
2023-04-22T04:29:11.194Z,9.53
2023-04-22T04:31:39.033Z,9.90
2023-04-22T04:34:08.130Z,10.07
2023-04-22T04:36:35.869Z,9.33
2023-04-22T04:39:04.186Z,9.47
2023-04-22T04:41:31.924Z,8.97
2023-04-22T04:44:00.604Z,9.60
2023-04-22T04:46:29.652Z,9.03
2023-04-22T04:48:58.728Z,9.43
2023-04-22T04:51:27.836Z,9.43
2023-04-22T04:53:55.584Z,9.87
2023-04-22T04:56:23.680Z,9.33
2023-04-22T04:58:51.442Z,10.90
2023-04-22T05:01:19.249Z,8.97
2023-04-22T05:03:47.216Z,10.07
2023-04-22T05:06:15.079Z,8.90
2023-04-22T05:08:44.146Z,10.43
2023-04-22T05:11:11.853Z,9.00
2023-04-22T05:13:39.598Z,9.50
2023-04-22T05:16:07.689Z,8.50
2023-04-22T05:18:35.542Z,8.23
2023-04-22T05:21:04.340Z,8.57
2023-04-22T05:23:32.093Z,9.27
2023-04-22T05:26:01.216Z,7.93
2023-04-22T05:28:28.945Z,9.07
2023-04-22T05:30:56.677Z,7.97
2023-04-22T05:33:24.433Z,8.13
2023-04-22T05:35:52.429Z,8.40
2023-04-22T05:38:20.249Z,7.47
2023-04-22T05:40:47.950Z,7.87
2023-04-22T05:43:17.177Z,7.90
2023-04-22T05:45:45.008Z,8.30
2023-04-22T05:48:12.922Z,8.33
2023-04-22T05:50:40.815Z,7.97
2023-04-22T05:53:08.589Z,7.90
2023-04-22T05:55:36.407Z,8.20
2023-04-22T05:58:04.257Z,7.30
2023-04-22T06:00:33.407Z,7.87
2023-04-22T06:03:01.427Z,7.30
2023-04-22T06:05:29.499Z,7.73
2023-04-22T06:07:57.268Z,8.03
2023-04-22T06:10:25.157Z,7.73
2023-04-22T06:12:52.880Z,7.90
2023-04-22T06:15:21.457Z,7.20
2023-04-22T06:17:50.899Z,7.50
2023-04-22T06:20:18.857Z,7.75
2023-04-22T06:22:46.611Z,7.67
2023-04-22T06:25:14.350Z,7.10
2023-04-22T06:27:42.223Z,7.80
2023-04-22T06:30:12.030Z,8.23
2023-04-22T06:32:39.826Z,7.88
2023-04-22T06:35:10.154Z,7.80
2023-04-22T06:37:37.971Z,7.47
2023-04-22T06:40:06.631Z,7.80
2023-04-22T06:42:34.482Z,7.50
2023-04-22T06:45:02.241Z,7.43
2023-04-22T06:47:30.048Z,7.93
2023-04-22T06:49:58.242Z,7.80
2023-04-22T06:52:27.353Z,7.07
2023-04-22T06:54:55.214Z,7.40
2023-04-22T06:57:23.036Z,8.05
2023-04-22T06:59:50.937Z,7.50
2023-04-22T07:02:19.012Z,7.90
2023-04-22T07:04:46.762Z,7.80
2023-04-22T07:07:14.867Z,7.22
2023-04-22T07:09:44.123Z,7.25
2023-04-22T07:12:11.879Z,7.35
2023-04-22T07:14:43.399Z,7.07
2023-04-22T07:17:11.561Z,7.28
2023-04-22T07:19:40.294Z,6.80
2023-04-22T07:22:08.592Z,6.95
2023-04-22T07:24:36.325Z,7.60
2023-04-22T07:27:05.432Z,7.32
2023-04-22T07:29:33.269Z,6.70
2023-04-22T07:32:01.071Z,6.47
2023-04-22T07:34:28.824Z,7.45
2023-04-22T07:36:56.632Z,7.53
2023-04-22T07:39:24.499Z,7.20
2023-04-22T07:41:53.219Z,6.97
2023-04-22T07:44:22.317Z,6.97
2023-04-22T07:46:54.020Z,6.65
2023-04-22T07:49:21.788Z,6.65
2023-04-22T07:51:49.529Z,6.70
2023-04-22T07:54:17.275Z,6.50
2023-04-22T07:56:45.122Z,6.82
2023-04-22T07:59:12.907Z,6.15
2023-04-22T08:01:41.991Z,6.43
2023-04-22T08:04:10.221Z,5.97
2023-04-22T08:06:38.326Z,6.28
2023-04-22T08:09:06.100Z,6.93
2023-04-22T08:11:33.962Z,6.82
2023-04-22T08:14:01.702Z,6.57
2023-04-22T08:16:29.635Z,6.10
2023-04-22T08:18:59.016Z,6.35
2023-04-22T08:21:27.412Z,6.57
2023-04-22T08:23:55.293Z,5.72
2023-04-22T08:26:23.234Z,6.85
2023-04-22T08:28:51.006Z,6.40
2023-04-22T08:31:18.826Z,6.53
2023-04-22T08:33:46.556Z,6.03
2023-04-22T08:36:16.135Z,5.43
2023-04-22T08:38:44.131Z,5.82
2023-04-22T08:41:13.243Z,6.03
2023-04-22T08:43:41.176Z,5.72
2023-04-22T08:46:09.120Z,5.85
2023-04-22T08:48:38.196Z,5.43
2023-04-22T08:51:07.648Z,5.10
2023-04-22T08:53:36.770Z,5.68
2023-04-22T08:56:04.917Z,5.25
2023-04-22T08:58:35.543Z,4.95
2023-04-22T09:01:04.533Z,5.53
2023-04-22T09:03:32.534Z,5.10
2023-04-22T09:06:03.079Z,5.10
2023-04-22T09:08:31.292Z,5.03
2023-04-22T09:11:00.772Z,5.68
2023-04-22T09:13:28.569Z,4.63
2023-04-22T09:15:58.629Z,5.15
2023-04-22T09:18:27.585Z,4.45
2023-04-22T09:20:57.240Z,4.43
2023-04-22T09:23:25.381Z,4.50
2023-04-22T09:25:53.173Z,5.40
2023-04-22T09:28:22.243Z,4.80
2023-04-22T09:30:50.010Z,4.70
2023-04-22T09:33:18.255Z,4.85
2023-04-22T09:35:45.992Z,4.30
2023-04-22T09:38:14.155Z,4.05
2023-04-22T09:40:44.279Z,4.20
2023-04-22T09:43:12.574Z,4.45
2023-04-22T09:45:43.620Z,4.65
2023-04-22T09:48:14.201Z,4.47
2023-04-22T09:50:44.558Z,4.75
2023-04-22T09:53:17.002Z,4.47
2023-04-22T09:55:47.479Z,4.93
2023-04-22T09:58:16.492Z,4.50
2023-04-22T10:00:48.761Z,4.47
2023-04-22T10:03:17.168Z,4.53
2023-04-22T10:05:46.244Z,5.05
2023-04-22T10:08:15.410Z,4.32
2023-04-22T10:10:44.088Z,4.50
2023-04-22T10:13:11.956Z,4.30
2023-04-22T10:15:42.233Z,4.78
2023-04-22T10:18:13.541Z,4.65
2023-04-22T10:20:43.208Z,4.55
2023-04-22T10:23:15.335Z,4.95
2023-04-22T10:25:43.201Z,4.50
2023-04-22T10:28:12.183Z,4.45
2023-04-22T10:30:41.052Z,4.72
2023-04-22T10:33:40.542Z,4.25
2023-04-22T10:36:16.944Z,3.97
2023-04-22T10:39:18.463Z,4.85
2023-04-22T10:41:53.367Z,4.85
2023-04-22T10:44:22.424Z,4.47
2023-04-22T10:47:02.986Z,3.95
2023-04-22T10:49:32.957Z,4.90
2023-04-22T10:52:03.990Z,4.53
2023-04-22T10:54:57.878Z,4.30
2023-04-22T10:57:36.237Z,4.32
2023-04-22T11:00:51.741Z,4.40
2023-04-22T11:03:28.263Z,4.60
2023-04-22T11:06:15.932Z,4.07
2023-04-22T11:08:46.564Z,3.70
2023-04-22T11:11:14.659Z,4.10
2023-04-22T11:13:43.728Z,4.20
2023-04-22T11:16:12.160Z,4.45
2023-04-22T11:18:40.109Z,4.35
2023-04-22T11:21:09.394Z,4.00
2023-04-22T11:23:38.509Z,4.85
2023-04-22T11:26:07.435Z,4.75
2023-04-22T11:28:35.346Z,5.15
2023-04-22T11:31:05.101Z,4.30
2023-04-22T11:33:33.796Z,4.40
2023-04-22T11:36:01.741Z,5.18
2023-04-22T11:38:29.574Z,4.80
2023-04-22T11:40:58.832Z,4.78
2023-04-22T11:43:26.957Z,4.43
2023-04-22T11:45:57.029Z,4.45
2023-04-22T11:48:24.981Z,4.63
2023-04-22T11:51:10.408Z,4.38
2023-04-22T11:53:39.553Z,5.10
2023-04-22T11:56:08.786Z,4.95
2023-04-22T11:58:41.815Z,5.20
2023-04-22T12:01:14.007Z,5.20
2023-04-22T12:03:42.349Z,5.60
2023-04-22T12:06:10.562Z,4.88
2023-04-22T12:08:41.973Z,4.72
2023-04-22T12:11:12.848Z,4.68
2023-04-22T12:13:45.556Z,4.38
2023-04-22T12:16:15.223Z,5.32
2023-04-22T12:18:50.088Z,5.07
2023-04-22T12:21:20.090Z,5.13
2023-04-22T12:23:49.363Z,5.03
2023-04-22T12:26:19.720Z,5.65
2023-04-22T12:28:48.327Z,5.03
2023-04-22T12:31:16.891Z,4.82
2023-04-22T12:33:45.549Z,5.05
2023-04-22T12:36:13.714Z,4.90
2023-04-22T12:38:41.611Z,4.68
2023-04-22T12:41:09.527Z,4.57
2023-04-22T12:43:39.459Z,4.55
2023-04-22T12:46:08.294Z,4.97
2023-04-22T12:48:37.264Z,4.72
2023-04-22T12:51:05.688Z,4.43
2023-04-22T12:53:33.480Z,4.60
2023-04-22T12:56:01.303Z,4.43
2023-04-22T12:58:29.059Z,4.30
2023-04-22T13:00:58.132Z,4.38
2023-04-22T13:03:26.012Z,4.65
2023-04-22T13:05:54.031Z,5.10
2023-04-22T13:08:21.926Z,4.72
2023-04-22T13:10:49.715Z,4.60
2023-04-22T13:13:19.335Z,5.18
2023-04-22T13:15:47.966Z,4.75
2023-04-22T13:18:17.510Z,4.82
2023-04-22T13:20:45.500Z,4.35
2023-04-22T13:23:14.416Z,4.88
2023-04-22T13:25:42.198Z,4.90
2023-04-22T13:28:11.405Z,4.85
2023-04-22T13:30:39.624Z,4.60
2023-04-22T13:33:07.506Z,4.50
2023-04-22T13:35:36.797Z,5.15
2023-04-22T13:38:05.107Z,4.35
2023-04-22T13:40:32.895Z,4.63
2023-04-22T13:43:00.691Z,4.85
2023-04-22T13:45:28.580Z,4.90
2023-04-22T13:47:56.538Z,4.80
2023-04-22T13:50:24.677Z,4.47
2023-04-22T13:52:53.921Z,4.00
2023-04-22T13:55:21.747Z,4.10
2023-04-22T13:57:51.407Z,4.60
2023-04-22T14:00:20.780Z,4.10
2023-04-22T14:02:49.295Z,4.30
2023-04-22T14:05:17.776Z,4.10
2023-04-22T14:07:45.588Z,4.13
2023-04-22T14:10:16.241Z,4.25
2023-04-22T14:12:45.204Z,4.28
2023-04-22T14:15:13.244Z,4.70
2023-04-22T14:17:41.159Z,4.40
2023-04-22T14:20:11.258Z,4.55
2023-04-22T14:22:39.198Z,4.45
2023-04-22T14:25:08.187Z,4.43
2023-04-22T14:27:37.369Z,3.70
2023-04-22T14:30:06.892Z,3.60
2023-04-22T14:32:34.792Z,4.15
2023-04-22T14:35:03.113Z,3.60
2023-04-22T14:37:31.807Z,3.83
2023-04-22T14:39:59.711Z,4.10
2023-04-22T14:42:28.233Z,4.32
2023-04-22T14:44:57.772Z,3.72
2023-04-22T14:47:25.783Z,4.47
2023-04-22T14:49:53.794Z,4.25
2023-04-22T14:52:21.626Z,4.75
2023-04-22T14:54:51.797Z,4.30
2023-04-22T14:57:20.075Z,3.75
2023-04-22T14:59:47.887Z,4.13
2023-04-22T15:02:17.345Z,4.05
2023-04-22T15:04:45.582Z,3.65
2023-04-22T15:07:13.800Z,4.00
2023-04-22T15:09:41.934Z,3.85
2023-04-22T15:12:10.033Z,4.07
2023-04-22T15:14:38.020Z,3.90
2023-04-22T15:17:06.261Z,4.05
2023-04-22T15:19:35.531Z,4.03
2023-04-22T15:22:03.498Z,4.20
2023-04-22T15:24:31.379Z,4.45
2023-04-22T15:27:00.193Z,3.70
2023-04-22T15:29:28.622Z,3.60
2023-04-22T15:31:56.655Z,3.88
2023-04-22T15:34:25.221Z,4.18
2023-04-22T15:36:54.637Z,4.03
2023-04-22T15:39:22.487Z,4.03
2023-04-22T15:41:50.430Z,3.78
2023-04-22T15:44:18.257Z,4.40
2023-04-22T15:46:46.973Z,3.60
2023-04-22T15:49:15.631Z,3.75
2023-04-22T15:51:43.436Z,3.90
2023-04-22T15:54:13.249Z,4.35
2023-04-22T15:56:41.077Z,4.18
2023-04-22T15:59:09.113Z,4.00
2023-04-22T16:01:38.710Z,4.07
2023-04-22T16:04:08.328Z,4.03
2023-04-22T16:06:37.674Z,4.05
2023-04-22T16:09:05.877Z,3.83
2023-04-22T16:11:34.988Z,4.65
2023-04-22T16:14:02.795Z,3.85
2023-04-22T16:16:30.987Z,4.25
2023-04-22T16:18:59.688Z,4.25
2023-04-22T16:21:28.721Z,3.72
2023-04-22T16:23:56.516Z,4.70
2023-04-22T16:26:24.341Z,4.47
2023-04-22T16:28:54.879Z,4.03
2023-04-22T16:31:23.583Z,4.40
2023-04-22T16:33:52.107Z,4.03
2023-04-22T16:36:19.991Z,4.18
2023-04-22T16:38:47.749Z,4.20
2023-04-22T16:41:15.915Z,5.20
2023-04-22T16:43:43.920Z,4.75
2023-04-22T16:46:13.366Z,4.63
2023-04-22T16:48:41.238Z,4.47
2023-04-22T16:51:09.050Z,5.10
2023-04-22T16:53:36.932Z,5.07
2023-04-22T16:56:05.914Z,4.70
2023-04-22T16:58:33.696Z,5.30
2023-04-22T17:01:01.499Z,4.60
2023-04-22T17:03:31.031Z,3.90
2023-04-22T17:05:58.948Z,4.32
2023-04-22T17:08:26.887Z,4.45
2023-04-22T17:10:54.686Z,5.07
2023-04-22T17:13:22.508Z,5.20
2023-04-22T17:15:50.437Z,4.80
2023-04-22T17:18:18.201Z,4.78
2023-04-22T17:20:49.220Z,4.85
2023-04-22T17:23:18.196Z,4.85
2023-04-22T17:26:45.280Z,4.28
2023-04-22T17:29:13.084Z,4.88
2023-04-22T17:31:41.138Z,4.93
2023-04-22T17:34:08.916Z,4.80
2023-04-22T17:36:38.105Z,5.20
2023-04-22T17:39:06.023Z,4.78
2023-04-22T17:41:33.886Z,5.32
2023-04-22T17:44:01.652Z,5.35
2023-04-22T17:46:29.435Z,7.47
2023-04-22T17:48:57.474Z,8.73
2023-04-22T17:51:25.264Z,8.45
2023-04-22T17:53:56.874Z,7.43
2023-04-22T17:56:25.127Z,7.07
2023-04-22T17:58:53.270Z,6.63
2023-04-22T18:01:21.138Z,5.95
2023-04-22T18:03:49.244Z,6.25
2023-04-22T18:06:17.153Z,6.45
2023-04-22T18:08:44.935Z,7.75
2023-04-22T18:11:14.186Z,8.52
2023-04-22T18:13:42.075Z,10.00
2023-04-22T18:16:09.997Z,10.80
2023-04-22T18:18:38.824Z,9.60
2023-04-22T18:21:06.702Z,8.52
2023-04-22T18:23:35.140Z,8.98
2023-04-22T18:26:09.534Z,11.45
2023-04-22T18:28:40.149Z,17.15
2023-04-22T18:31:08.182Z,18.15
2023-04-22T18:33:36.484Z,9.55
2023-04-22T18:36:04.978Z,9.27
2023-04-22T18:38:32.997Z,9.82
2023-04-22T18:41:00.764Z,9.40
2023-04-22T18:43:28.566Z,8.35
2023-04-22T18:45:57.682Z,7.90
2023-04-22T18:48:25.765Z,8.18
2023-04-22T18:50:53.610Z,9.65
2023-04-22T18:53:21.354Z,8.93
2023-04-22T18:55:49.180Z,9.73
2023-04-22T18:58:16.967Z,9.35
2023-04-22T19:00:44.898Z,9.73
2023-04-22T19:03:14.193Z,10.82
2023-04-22T19:05:42.113Z,10.55
2023-04-22T19:08:09.925Z,9.40
2023-04-22T19:10:38.210Z,9.93
2023-04-22T19:13:08.049Z,8.90
2023-04-22T19:15:39.369Z,7.28
2023-04-22T19:18:07.352Z,8.32
2023-04-22T19:20:37.098Z,9.27
2023-04-22T19:23:04.988Z,14.82
2023-04-22T19:25:34.117Z,25.60
2023-04-22T19:28:01.873Z,21.70
2023-04-22T19:30:29.712Z,15.15
2023-04-22T19:32:57.599Z,15.25
2023-04-22T19:35:27.234Z,12.27
2023-04-22T19:37:56.400Z,13.88
2023-04-22T19:40:24.379Z,14.93
2023-04-22T19:42:52.244Z,28.13
2023-04-22T19:45:20.028Z,25.33
2023-04-22T19:47:48.218Z,22.48
2023-04-22T19:50:16.621Z,16.33
2023-04-22T19:52:47.111Z,14.02
2023-04-22T19:55:17.424Z,13.05
2023-04-22T19:57:45.572Z,13.02
2023-04-22T20:00:14.426Z,12.65
2023-04-22T20:02:42.846Z,12.27
2023-04-22T20:05:11.494Z,11.80
2023-04-22T20:07:40.893Z,12.57
2023-04-22T20:10:09.973Z,12.50
2023-04-22T20:12:39.491Z,12.30
2023-04-22T20:15:08.977Z,12.70
2023-04-22T20:17:39.168Z,13.70
2023-04-22T20:20:12.896Z,11.73
2023-04-22T20:22:41.569Z,14.52
2023-04-22T20:25:13.747Z,14.65
2023-04-22T20:27:43.533Z,13.43
2023-04-22T20:30:13.615Z,21.23
2023-04-22T20:32:41.943Z,20.40
2023-04-22T20:35:14.799Z,27.60
2023-04-22T20:37:43.710Z,38.15
2023-04-22T20:40:15.144Z,52.15
2023-04-22T20:42:44.413Z,28.60
2023-04-22T20:45:15.603Z,45.35
2023-04-22T20:47:44.129Z,38.47
2023-04-22T20:50:13.097Z,34.80
2023-04-22T20:52:41.169Z,40.58
2023-04-22T20:55:09.545Z,38.60
2023-04-22T20:57:37.655Z,41.42
2023-04-22T21:00:08.586Z,37.88
2023-04-22T21:02:37.329Z,47.90
2023-04-22T21:05:06.756Z,43.13
2023-04-22T21:07:35.966Z,36.83
2023-04-22T21:10:04.234Z,32.63
2023-04-22T21:12:33.098Z,31.98
2023-04-22T21:15:01.728Z,33.58
2023-04-22T21:17:32.612Z,46.35
2023-04-22T21:20:02.584Z,48.08
2023-04-22T21:22:30.944Z,42.33
2023-04-22T21:24:59.813Z,40.72
2023-04-22T21:27:28.092Z,37.40
2023-04-22T21:29:57.030Z,29.35
2023-04-22T21:32:24.832Z,25.92
2023-04-22T21:34:53.964Z,58.40
2023-04-22T21:37:21.798Z,35.10
2023-04-22T21:39:49.538Z,28.05
2023-04-22T21:42:17.267Z,16.50
2023-04-22T21:44:49.686Z,12.18
2023-04-22T21:47:17.767Z,11.95
2023-04-22T21:49:46.979Z,20.55
2023-04-22T21:52:16.362Z,13.77
2023-04-22T21:54:44.281Z,13.30
2023-04-22T21:57:12.168Z,13.00
2023-04-22T21:59:39.928Z,9.73
2023-04-22T22:02:07.662Z,10.70
2023-04-22T22:04:36.457Z,9.27
2023-04-22T22:07:04.279Z,9.00
2023-04-22T22:09:33.364Z,8.95
2023-04-22T22:12:01.798Z,9.48
2023-04-22T22:14:29.578Z,9.90
2023-04-22T22:16:57.449Z,9.48
2023-04-22T22:19:27.764Z,8.77
2023-04-22T22:21:55.745Z,9.20
2023-04-22T22:24:23.841Z,9.18
2023-04-22T22:26:52.919Z,9.50
2023-04-22T22:29:20.744Z,9.00
2023-04-22T22:31:48.533Z,8.88
2023-04-22T22:34:16.306Z,8.88
2023-04-22T22:36:44.052Z,6.78
2023-04-22T22:39:14.418Z,7.35
2023-04-22T22:41:43.863Z,6.53
2023-04-22T22:44:13.262Z,7.00
2023-04-22T22:46:41.298Z,7.00
2023-04-22T22:49:09.087Z,6.63
2023-04-22T22:51:37.535Z,6.80
2023-04-22T22:54:06.491Z,6.78
2023-04-22T22:56:34.473Z,7.22
2023-04-22T22:59:02.263Z,6.57
2023-04-22T23:01:31.464Z,6.78
2023-04-22T23:03:59.657Z,7.13
2023-04-22T23:06:28.130Z,6.70
2023-04-22T23:08:55.886Z,6.93
2023-04-22T23:11:23.619Z,6.88
2023-04-22T23:13:51.384Z,6.40
2023-04-22T23:16:19.509Z,6.75
2023-04-22T23:18:49.283Z,6.45
2023-04-22T23:21:17.280Z,6.50
2023-04-22T23:23:45.715Z,6.88
2023-04-22T23:26:14.004Z,6.82
2023-04-22T23:28:42.181Z,7.20
2023-04-22T23:31:11.002Z,6.55
2023-04-22T23:33:41.978Z,6.82
2023-04-22T23:36:14.028Z,6.75
2023-04-22T23:38:41.793Z,6.47
2023-04-22T23:41:09.545Z,6.45
2023-04-22T23:43:37.444Z,6.97
2023-04-22T23:46:05.500Z,6.72
2023-04-22T23:48:33.362Z,7.80
2023-04-22T23:51:01.242Z,7.07
2023-04-22T23:53:30.358Z,6.95
2023-04-22T23:55:58.654Z,7.13
2023-04-22T23:58:26.724Z,7.40
